sensor_id;sensor_type;location;lat;lon;timestamp;P1;durP1;ratioP1;P2;durP2;ratioP2
23470;SDS011;11908;50.806;4.424;2024-01-07T00:00:17;14.00;;;10.48;;
23470;SDS011;11908;50.806;4.424;2024-01-07T00:02:43;16.15;;;10.07;;
23470;SDS011;11908;50.806;4.424;2024-01-07T00:05:09;15.00;;;10.15;;
23470;SDS011;11908;50.806;4.424;2024-01-07T00:07:35;15.65;;;10.25;;
23470;SDS011;11908;50.806;4.424;2024-01-07T00:10:00;16.95;;;10.43;;
23470;SDS011;11908;50.806;4.424;2024-01-07T00:12:26;13.27;;;10.52;;
23470;SDS011;11908;50.806;4.424;2024-01-07T00:14:52;15.48;;;10.85;;
23470;SDS011;11908;50.806;4.424;2024-01-07T00:17:17;14.40;;;10.50;;
23470;SDS011;11908;50.806;4.424;2024-01-07T00:19:43;16.17;;;11.40;;
23470;SDS011;11908;50.806;4.424;2024-01-07T00:22:09;14.70;;;11.40;;
23470;SDS011;11908;50.806;4.424;2024-01-07T00:24:34;13.15;;;10.35;;
23470;SDS011;11908;50.806;4.424;2024-01-07T00:27:00;18.80;;;11.57;;
23470;SDS011;11908;50.806;4.424;2024-01-07T00:29:25;15.52;;;11.23;;
23470;SDS011;11908;50.806;4.424;2024-01-07T00:31:51;18.30;;;11.88;;
23470;SDS011;11908;50.806;4.424;2024-01-07T00:34:17;20.30;;;12.57;;
23470;SDS011;11908;50.806;4.424;2024-01-07T00:36:43;18.60;;;12.98;;
23470;SDS011;11908;50.806;4.424;2024-01-07T00:39:08;15.68;;;12.65;;
23470;SDS011;11908;50.806;4.424;2024-01-07T00:41:34;17.30;;;12.55;;
23470;SDS011;11908;50.806;4.424;2024-01-07T00:44:00;20.92;;;13.18;;
23470;SDS011;11908;50.806;4.424;2024-01-07T00:46:25;18.55;;;13.07;;
23470;SDS011;11908;50.806;4.424;2024-01-07T00:48:51;15.95;;;12.48;;
23470;SDS011;11908;50.806;4.424;2024-01-07T00:51:17;17.70;;;13.13;;
23470;SDS011;11908;50.806;4.424;2024-01-07T00:53:42;17.92;;;12.50;;
23470;SDS011;11908;50.806;4.424;2024-01-07T00:56:09;18.75;;;12.75;;
23470;SDS011;11908;50.806;4.424;2024-01-07T00:58:35;17.95;;;13.60;;
23470;SDS011;11908;50.806;4.424;2024-01-07T01:01:02;19.27;;;13.50;;
23470;SDS011;11908;50.806;4.424;2024-01-07T01:03:27;18.90;;;12.82;;
23470;SDS011;11908;50.806;4.424;2024-01-07T01:05:53;17.77;;;13.20;;
23470;SDS011;11908;50.806;4.424;2024-01-07T01:08:19;18.25;;;12.77;;
23470;SDS011;11908;50.806;4.424;2024-01-07T01:10:45;20.08;;;12.93;;
23470;SDS011;11908;50.806;4.424;2024-01-07T01:13:11;18.75;;;13.20;;
23470;SDS011;11908;50.806;4.424;2024-01-07T01:15:36;18.15;;;13.63;;
23470;SDS011;11908;50.806;4.424;2024-01-07T01:18:02;17.85;;;13.48;;
23470;SDS011;11908;50.806;4.424;2024-01-07T01:20:28;16.42;;;12.40;;
23470;SDS011;11908;50.806;4.424;2024-01-07T01:22:53;15.15;;;12.27;;
23470;SDS011;11908;50.806;4.424;2024-01-07T01:25:19;16.73;;;12.35;;
23470;SDS011;11908;50.806;4.424;2024-01-07T01:27:45;16.98;;;12.23;;
23470;SDS011;11908;50.806;4.424;2024-01-07T01:30:11;15.65;;;11.68;;
23470;SDS011;11908;50.806;4.424;2024-01-07T01:32:38;16.25;;;12.00;;
23470;SDS011;11908;50.806;4.424;2024-01-07T01:35:04;17.90;;;13.55;;
23470;SDS011;11908;50.806;4.424;2024-01-07T01:37:30;16.50;;;13.00;;
23470;SDS011;11908;50.806;4.424;2024-01-07T01:39:57;18.80;;;13.30;;
23470;SDS011;11908;50.806;4.424;2024-01-07T01:42:23;18.83;;;14.27;;
23470;SDS011;11908;50.806;4.424;2024-01-07T01:44:49;18.50;;;13.93;;
23470;SDS011;11908;50.806;4.424;2024-01-07T01:47:17;21.38;;;14.43;;
23470;SDS011;11908;50.806;4.424;2024-01-07T01:49:43;18.83;;;14.45;;
23470;SDS011;11908;50.806;4.424;2024-01-07T01:52:10;18.75;;;14.32;;
23470;SDS011;11908;50.806;4.424;2024-01-07T01:54:37;22.02;;;15.85;;
23470;SDS011;11908;50.806;4.424;2024-01-07T01:57:02;23.17;;;15.63;;
23470;SDS011;11908;50.806;4.424;2024-01-07T01:59:29;22.63;;;15.45;;
23470;SDS011;11908;50.806;4.424;2024-01-07T02:01:57;23.73;;;16.65;;
23470;SDS011;11908;50.806;4.424;2024-01-07T02:04:22;20.00;;;14.95;;
23470;SDS011;11908;50.806;4.424;2024-01-07T02:06:48;21.95;;;15.60;;
23470;SDS011;11908;50.806;4.424;2024-01-07T02:09:14;22.27;;;16.00;;
23470;SDS011;11908;50.806;4.424;2024-01-07T02:11:39;20.55;;;14.65;;
23470;SDS011;11908;50.806;4.424;2024-01-07T02:14:05;21.15;;;14.77;;
23470;SDS011;11908;50.806;4.424;2024-01-07T02:16:31;19.73;;;14.35;;
23470;SDS011;11908;50.806;4.424;2024-01-07T02:18:57;18.63;;;13.43;;
23470;SDS011;11908;50.806;4.424;2024-01-07T02:21:23;18.05;;;13.23;;
23470;SDS011;11908;50.806;4.424;2024-01-07T02:23:49;19.70;;;12.25;;
23470;SDS011;11908;50.806;4.424;2024-01-07T02:26:14;19.15;;;13.95;;
23470;SDS011;11908;50.806;4.424;2024-01-07T02:28:41;19.23;;;13.18;;
23470;SDS011;11908;50.806;4.424;2024-01-07T02:31:06;16.83;;;11.82;;
23470;SDS011;11908;50.806;4.424;2024-01-07T02:33:33;17.58;;;12.98;;
23470;SDS011;11908;50.806;4.424;2024-01-07T02:35:58;15.48;;;11.85;;
23470;SDS011;11908;50.806;4.424;2024-01-07T02:38:24;17.08;;;11.85;;
23470;SDS011;11908;50.806;4.424;2024-01-07T02:40:49;16.10;;;11.77;;
23470;SDS011;11908;50.806;4.424;2024-01-07T02:43:15;15.77;;;11.70;;
23470;SDS011;11908;50.806;4.424;2024-01-07T02:45:41;15.38;;;11.57;;
23470;SDS011;11908;50.806;4.424;2024-01-07T02:48:06;15.52;;;11.73;;
23470;SDS011;11908;50.806;4.424;2024-01-07T02:50:32;17.55;;;12.48;;
23470;SDS011;11908;50.806;4.424;2024-01-07T02:52:58;17.88;;;11.68;;
23470;SDS011;11908;50.806;4.424;2024-01-07T02:55:24;17.23;;;11.85;;
23470;SDS011;11908;50.806;4.424;2024-01-07T02:57:49;18.02;;;12.98;;
23470;SDS011;11908;50.806;4.424;2024-01-07T03:00:15;20.63;;;13.63;;
23470;SDS011;11908;50.806;4.424;2024-01-07T03:02:41;16.30;;;12.07;;
23470;SDS011;11908;50.806;4.424;2024-01-07T03:05:07;15.70;;;12.13;;
23470;SDS011;11908;50.806;4.424;2024-01-07T03:07:33;17.88;;;13.43;;
23470;SDS011;11908;50.806;4.424;2024-01-07T03:09:58;18.60;;;13.18;;
23470;SDS011;11908;50.806;4.424;2024-01-07T03:12:24;20.15;;;13.55;;
23470;SDS011;11908;50.806;4.424;2024-01-07T03:14:50;17.83;;;13.05;;
23470;SDS011;11908;50.806;4.424;2024-01-07T03:17:15;22.67;;;14.80;;
23470;SDS011;11908;50.806;4.424;2024-01-07T03:19:42;23.60;;;16.63;;
23470;SDS011;11908;50.806;4.424;2024-01-07T03:22:08;22.23;;;15.48;;
23470;SDS011;11908;50.806;4.424;2024-01-07T03:24:34;20.60;;;14.90;;
23470;SDS011;11908;50.806;4.424;2024-01-07T03:26:59;23.88;;;17.08;;
23470;SDS011;11908;50.806;4.424;2024-01-07T03:29:25;22.83;;;16.35;;
23470;SDS011;11908;50.806;4.424;2024-01-07T03:31:51;23.45;;;16.30;;
23470;SDS011;11908;50.806;4.424;2024-01-07T03:34:18;23.95;;;16.23;;
23470;SDS011;11908;50.806;4.424;2024-01-07T03:36:44;21.92;;;16.00;;
23470;SDS011;11908;50.806;4.424;2024-01-07T03:39:09;21.83;;;15.95;;
23470;SDS011;11908;50.806;4.424;2024-01-07T03:41:35;23.50;;;16.27;;
23470;SDS011;11908;50.806;4.424;2024-01-07T03:44:01;24.02;;;15.85;;
23470;SDS011;11908;50.806;4.424;2024-01-07T03:46:27;24.63;;;16.13;;
23470;SDS011;11908;50.806;4.424;2024-01-07T03:48:52;27.20;;;17.08;;
23470;SDS011;11908;50.806;4.424;2024-01-07T03:51:18;25.30;;;17.55;;
23470;SDS011;11908;50.806;4.424;2024-01-07T03:53:44;27.05;;;18.27;;
23470;SDS011;11908;50.806;4.424;2024-01-07T03:56:09;28.08;;;19.38;;
23470;SDS011;11908;50.806;4.424;2024-01-07T03:58:35;28.00;;;19.20;;
23470;SDS011;11908;50.806;4.424;2024-01-07T04:01:01;28.17;;;18.45;;
23470;SDS011;11908;50.806;4.424;2024-01-07T04:03:27;28.27;;;18.75;;
23470;SDS011;11908;50.806;4.424;2024-01-07T04:05:52;28.85;;;18.38;;
23470;SDS011;11908;50.806;4.424;2024-01-07T04:08:18;31.70;;;20.00;;
23470;SDS011;11908;50.806;4.424;2024-01-07T04:10:44;28.52;;;18.80;;
23470;SDS011;11908;50.806;4.424;2024-01-07T04:13:09;28.20;;;18.98;;
23470;SDS011;11908;50.806;4.424;2024-01-07T04:15:35;32.35;;;22.10;;
23470;SDS011;11908;50.806;4.424;2024-01-07T04:18:01;35.97;;;23.77;;
23470;SDS011;11908;50.806;4.424;2024-01-07T04:20:28;42.13;;;26.42;;
23470;SDS011;11908;50.806;4.424;2024-01-07T04:22:54;37.78;;;24.75;;
23470;SDS011;11908;50.806;4.424;2024-01-07T04:25:20;38.83;;;24.80;;
23470;SDS011;11908;50.806;4.424;2024-01-07T04:27:46;39.38;;;26.20;;
23470;SDS011;11908;50.806;4.424;2024-01-07T04:30:11;39.70;;;25.85;;
23470;SDS011;11908;50.806;4.424;2024-01-07T04:32:37;43.95;;;27.20;;
23470;SDS011;11908;50.806;4.424;2024-01-07T04:35:03;44.05;;;26.05;;
23470;SDS011;11908;50.806;4.424;2024-01-07T04:37:29;43.88;;;27.80;;
23470;SDS011;11908;50.806;4.424;2024-01-07T04:39:55;48.42;;;28.55;;
23470;SDS011;11908;50.806;4.424;2024-01-07T04:42:20;40.10;;;26.33;;
23470;SDS011;11908;50.806;4.424;2024-01-07T04:44:46;44.10;;;27.42;;
23470;SDS011;11908;50.806;4.424;2024-01-07T04:47:28;43.38;;;26.33;;
23470;SDS011;11908;50.806;4.424;2024-01-07T04:49:59;44.17;;;27.02;;
23470;SDS011;11908;50.806;4.424;2024-01-07T04:52:25;43.10;;;26.80;;
23470;SDS011;11908;50.806;4.424;2024-01-07T04:54:51;42.30;;;26.17;;
23470;SDS011;11908;50.806;4.424;2024-01-07T04:57:17;45.22;;;26.05;;
23470;SDS011;11908;50.806;4.424;2024-01-07T04:59:43;38.60;;;24.25;;
23470;SDS011;11908;50.806;4.424;2024-01-07T05:02:10;40.80;;;25.60;;
23470;SDS011;11908;50.806;4.424;2024-01-07T05:04:36;42.75;;;25.02;;
23470;SDS011;11908;50.806;4.424;2024-01-07T05:07:01;41.70;;;24.88;;
23470;SDS011;11908;50.806;4.424;2024-01-07T05:09:27;40.47;;;24.60;;
23470;SDS011;11908;50.806;4.424;2024-01-07T05:11:53;44.50;;;26.58;;
23470;SDS011;11908;50.806;4.424;2024-01-07T05:14:19;38.08;;;23.75;;
23470;SDS011;11908;50.806;4.424;2024-01-07T05:16:44;44.00;;;26.13;;
23470;SDS011;11908;50.806;4.424;2024-01-07T05:19:10;44.30;;;26.70;;
23470;SDS011;11908;50.806;4.424;2024-01-07T05:21:36;45.45;;;25.08;;
23470;SDS011;11908;50.806;4.424;2024-01-07T05:24:02;45.85;;;25.85;;
23470;SDS011;11908;50.806;4.424;2024-01-07T05:26:29;45.60;;;25.85;;
23470;SDS011;11908;50.806;4.424;2024-01-07T05:28:55;43.53;;;26.08;;
23470;SDS011;11908;50.806;4.424;2024-01-07T05:31:20;48.55;;;26.77;;
23470;SDS011;11908;50.806;4.424;2024-01-07T05:33:46;43.33;;;26.27;;
23470;SDS011;11908;50.806;4.424;2024-01-07T05:36:12;43.22;;;26.20;;
23470;SDS011;11908;50.806;4.424;2024-01-07T05:38:38;43.00;;;26.33;;
23470;SDS011;11908;50.806;4.424;2024-01-07T05:41:04;46.53;;;26.70;;
23470;SDS011;11908;50.806;4.424;2024-01-07T05:43:30;48.50;;;28.55;;
23470;SDS011;11908;50.806;4.424;2024-01-07T05:45:55;48.92;;;29.95;;
23470;SDS011;11908;50.806;4.424;2024-01-07T05:48:21;48.35;;;28.85;;
23470;SDS011;11908;50.806;4.424;2024-01-07T05:50:48;52.22;;;29.80;;
23470;SDS011;11908;50.806;4.424;2024-01-07T05:53:14;47.67;;;29.55;;
23470;SDS011;11908;50.806;4.424;2024-01-07T05:55:40;48.45;;;30.02;;
23470;SDS011;11908;50.806;4.424;2024-01-07T05:58:05;50.58;;;28.45;;
23470;SDS011;11908;50.806;4.424;2024-01-07T06:00:31;44.53;;;27.23;;
23470;SDS011;11908;50.806;4.424;2024-01-07T06:02:57;51.70;;;29.67;;
23470;SDS011;11908;50.806;4.424;2024-01-07T06:05:23;49.45;;;29.20;;
23470;SDS011;11908;50.806;4.424;2024-01-07T06:07:48;48.00;;;28.67;;
23470;SDS011;11908;50.806;4.424;2024-01-07T06:10:14;47.90;;;29.00;;
23470;SDS011;11908;50.806;4.424;2024-01-07T06:12:40;49.30;;;28.50;;
23470;SDS011;11908;50.806;4.424;2024-01-07T06:15:06;44.92;;;28.02;;
23470;SDS011;11908;50.806;4.424;2024-01-07T06:17:32;44.38;;;28.38;;
23470;SDS011;11908;50.806;4.424;2024-01-07T06:19:58;48.65;;;29.27;;
23470;SDS011;11908;50.806;4.424;2024-01-07T06:22:23;50.92;;;29.00;;
23470;SDS011;11908;50.806;4.424;2024-01-07T06:24:49;49.05;;;29.05;;
23470;SDS011;11908;50.806;4.424;2024-01-07T06:27:14;49.78;;;28.35;;
23470;SDS011;11908;50.806;4.424;2024-01-07T06:29:40;48.40;;;27.63;;
23470;SDS011;11908;50.806;4.424;2024-01-07T06:32:06;51.55;;;28.38;;
23470;SDS011;11908;50.806;4.424;2024-01-07T06:34:31;52.88;;;28.63;;
23470;SDS011;11908;50.806;4.424;2024-01-07T06:36:58;53.00;;;29.00;;
23470;SDS011;11908;50.806;4.424;2024-01-07T06:39:24;48.58;;;27.67;;
23470;SDS011;11908;50.806;4.424;2024-01-07T06:41:52;48.03;;;27.20;;
23470;SDS011;11908;50.806;4.424;2024-01-07T06:44:18;52.90;;;30.00;;
23470;SDS011;11908;50.806;4.424;2024-01-07T06:46:43;52.75;;;29.70;;
23470;SDS011;11908;50.806;4.424;2024-01-07T06:49:09;51.65;;;28.92;;
23470;SDS011;11908;50.806;4.424;2024-01-07T06:51:35;56.83;;;29.60;;
23470;SDS011;11908;50.806;4.424;2024-01-07T06:54:01;51.35;;;28.35;;
23470;SDS011;11908;50.806;4.424;2024-01-07T06:56:26;51.45;;;27.15;;
23470;SDS011;11908;50.806;4.424;2024-01-07T06:58:52;55.80;;;29.25;;
23470;SDS011;11908;50.806;4.424;2024-01-07T07:01:19;51.33;;;27.70;;
23470;SDS011;11908;50.806;4.424;2024-01-07T07:03:48;56.42;;;28.23;;
23470;SDS011;11908;50.806;4.424;2024-01-07T07:06:15;57.67;;;29.60;;
23470;SDS011;11908;50.806;4.424;2024-01-07T07:08:41;52.88;;;26.92;;
23470;SDS011;11908;50.806;4.424;2024-01-07T07:11:07;51.20;;;27.42;;
23470;SDS011;11908;50.806;4.424;2024-01-07T07:13:32;54.60;;;27.50;;
23470;SDS011;11908;50.806;4.424;2024-01-07T07:15:58;56.15;;;26.92;;
23470;SDS011;11908;50.806;4.424;2024-01-07T07:18:25;62.10;;;29.13;;
23470;SDS011;11908;50.806;4.424;2024-01-07T07:20:51;55.10;;;27.70;;
23470;SDS011;11908;50.806;4.424;2024-01-07T07:23:17;55.70;;;27.52;;
23470;SDS011;11908;50.806;4.424;2024-01-07T07:25:43;63.55;;;28.60;;
23470;SDS011;11908;50.806;4.424;2024-01-07T07:28:08;60.78;;;27.67;;
23470;SDS011;11908;50.806;4.424;2024-01-07T07:30:34;64.70;;;29.67;;
23470;SDS011;11908;50.806;4.424;2024-01-07T07:33:00;61.55;;;28.67;;
23470;SDS011;11908;50.806;4.424;2024-01-07T07:35:25;68.72;;;29.25;;
23470;SDS011;11908;50.806;4.424;2024-01-07T07:37:51;59.25;;;30.58;;
23470;SDS011;11908;50.806;4.424;2024-01-07T07:40:17;64.50;;;30.60;;
23470;SDS011;11908;50.806;4.424;2024-01-07T07:42:43;60.67;;;29.48;;
23470;SDS011;11908;50.806;4.424;2024-01-07T07:45:09;59.30;;;30.20;;
23470;SDS011;11908;50.806;4.424;2024-01-07T07:47:36;67.68;;;30.23;;
23470;SDS011;11908;50.806;4.424;2024-01-07T07:50:01;64.43;;;32.25;;
23470;SDS011;11908;50.806;4.424;2024-01-07T07:52:28;62.00;;;30.10;;
23470;SDS011;11908;50.806;4.424;2024-01-07T07:54:54;67.18;;;31.40;;
23470;SDS011;11908;50.806;4.424;2024-01-07T07:57:20;57.08;;;30.55;;
23470;SDS011;11908;50.806;4.424;2024-01-07T07:59:47;62.30;;;30.52;;
23470;SDS011;11908;50.806;4.424;2024-01-07T08:02:13;62.95;;;30.13;;
23470;SDS011;11908;50.806;4.424;2024-01-07T08:04:39;66.45;;;33.03;;
23470;SDS011;11908;50.806;4.424;2024-01-07T08:07:06;64.53;;;32.17;;
23470;SDS011;11908;50.806;4.424;2024-01-07T08:09:33;64.75;;;31.80;;
23470;SDS011;11908;50.806;4.424;2024-01-07T08:12:01;68.45;;;32.83;;
23470;SDS011;11908;50.806;4.424;2024-01-07T08:14:28;62.03;;;30.38;;
23470;SDS011;11908;50.806;4.424;2024-01-07T08:16:54;67.30;;;30.98;;
23470;SDS011;11908;50.806;4.424;2024-01-07T08:19:19;63.22;;;30.30;;
23470;SDS011;11908;50.806;4.424;2024-01-07T08:21:45;74.13;;;32.42;;
23470;SDS011;11908;50.806;4.424;2024-01-07T08:24:11;65.10;;;30.50;;
23470;SDS011;11908;50.806;4.424;2024-01-07T08:26:37;64.70;;;30.77;;
23470;SDS011;11908;50.806;4.424;2024-01-07T08:29:03;60.75;;;30.10;;
23470;SDS011;11908;50.806;4.424;2024-01-07T08:31:29;63.88;;;31.15;;
23470;SDS011;11908;50.806;4.424;2024-01-07T08:33:55;62.30;;;30.52;;
23470;SDS011;11908;50.806;4.424;2024-01-07T08:36:21;68.28;;;31.95;;
23470;SDS011;11908;50.806;4.424;2024-01-07T08:38:47;60.78;;;31.38;;
23470;SDS011;11908;50.806;4.424;2024-01-07T08:41:15;59.90;;;29.67;;
23470;SDS011;11908;50.806;4.424;2024-01-07T08:43:41;71.55;;;29.83;;
23470;SDS011;11908;50.806;4.424;2024-01-07T08:46:07;61.08;;;30.10;;
23470;SDS011;11908;50.806;4.424;2024-01-07T08:48:32;60.28;;;28.25;;
23470;SDS011;11908;50.806;4.424;2024-01-07T08:50:58;54.47;;;27.65;;
23470;SDS011;11908;50.806;4.424;2024-01-07T08:53:24;48.70;;;26.42;;
23470;SDS011;11908;50.806;4.424;2024-01-07T08:55:50;49.17;;;25.85;;
23470;SDS011;11908;50.806;4.424;2024-01-07T08:58:16;44.80;;;25.30;;
23470;SDS011;11908;50.806;4.424;2024-01-07T09:00:42;46.72;;;25.02;;
23470;SDS011;11908;50.806;4.424;2024-01-07T09:03:09;46.33;;;24.73;;
23470;SDS011;11908;50.806;4.424;2024-01-07T09:05:34;46.13;;;24.30;;
23470;SDS011;11908;50.806;4.424;2024-01-07T09:08:01;43.65;;;24.98;;
23470;SDS011;11908;50.806;4.424;2024-01-07T09:10:27;41.20;;;23.80;;
23470;SDS011;11908;50.806;4.424;2024-01-07T09:12:52;41.03;;;23.75;;
23470;SDS011;11908;50.806;4.424;2024-01-07T09:15:18;40.53;;;23.45;;
23470;SDS011;11908;50.806;4.424;2024-01-07T09:17:45;41.03;;;23.58;;
23470;SDS011;11908;50.806;4.424;2024-01-07T09:20:11;40.08;;;25.52;;
23470;SDS011;11908;50.806;4.424;2024-01-07T09:22:38;40.35;;;24.13;;
23470;SDS011;11908;50.806;4.424;2024-01-07T09:25:04;42.78;;;25.08;;
23470;SDS011;11908;50.806;4.424;2024-01-07T09:27:30;47.20;;;28.00;;
23470;SDS011;11908;50.806;4.424;2024-01-07T09:29:57;47.28;;;27.60;;
23470;SDS011;11908;50.806;4.424;2024-01-07T09:32:22;52.08;;;29.48;;
23470;SDS011;11908;50.806;4.424;2024-01-07T09:34:48;55.75;;;30.50;;
23470;SDS011;11908;50.806;4.424;2024-01-07T09:37:14;52.38;;;27.63;;
23470;SDS011;11908;50.806;4.424;2024-01-07T09:39:41;45.90;;;26.77;;
23470;SDS011;11908;50.806;4.424;2024-01-07T09:42:13;46.50;;;26.80;;
23470;SDS011;11908;50.806;4.424;2024-01-07T09:44:43;48.63;;;29.05;;
23470;SDS011;11908;50.806;4.424;2024-01-07T09:47:10;49.83;;;27.17;;
23470;SDS011;11908;50.806;4.424;2024-01-07T09:49:37;43.42;;;27.08;;
23470;SDS011;11908;50.806;4.424;2024-01-07T09:52:04;41.55;;;26.25;;
23470;SDS011;11908;50.806;4.424;2024-01-07T09:54:30;46.30;;;26.73;;
23470;SDS011;11908;50.806;4.424;2024-01-07T09:57:01;44.42;;;25.75;;
23470;SDS011;11908;50.806;4.424;2024-01-07T09:59:28;44.05;;;26.40;;
23470;SDS011;11908;50.806;4.424;2024-01-07T10:01:55;40.65;;;24.10;;
23470;SDS011;11908;50.806;4.424;2024-01-07T10:04:22;40.75;;;24.25;;
23470;SDS011;11908;50.806;4.424;2024-01-07T10:06:51;44.70;;;26.05;;
23470;SDS011;11908;50.806;4.424;2024-01-07T10:09:19;43.65;;;25.58;;
23470;SDS011;11908;50.806;4.424;2024-01-07T10:11:49;43.10;;;25.30;;
23470;SDS011;11908;50.806;4.424;2024-01-07T10:14:14;38.65;;;24.77;;
23470;SDS011;11908;50.806;4.424;2024-01-07T10:16:40;41.92;;;24.75;;
23470;SDS011;11908;50.806;4.424;2024-01-07T10:19:06;42.85;;;26.50;;
23470;SDS011;11908;50.806;4.424;2024-01-07T10:21:32;43.35;;;26.17;;
23470;SDS011;11908;50.806;4.424;2024-01-07T10:24:11;41.28;;;26.45;;
23470;SDS011;11908;50.806;4.424;2024-01-07T10:26:40;42.75;;;26.15;;
23470;SDS011;11908;50.806;4.424;2024-01-07T10:29:07;42.10;;;25.02;;
23470;SDS011;11908;50.806;4.424;2024-01-07T10:31:37;43.70;;;26.27;;
23470;SDS011;11908;50.806;4.424;2024-01-07T10:34:07;42.17;;;25.77;;
23470;SDS011;11908;50.806;4.424;2024-01-07T10:36:38;47.15;;;27.50;;
23470;SDS011;11908;50.806;4.424;2024-01-07T10:39:05;44.95;;;27.00;;
23470;SDS011;11908;50.806;4.424;2024-01-07T10:41:31;44.35;;;26.92;;
23470;SDS011;11908;50.806;4.424;2024-01-07T10:43:58;41.90;;;26.52;;
23470;SDS011;11908;50.806;4.424;2024-01-07T10:46:24;47.08;;;27.13;;
23470;SDS011;11908;50.806;4.424;2024-01-07T10:48:55;42.08;;;26.40;;
23470;SDS011;11908;50.806;4.424;2024-01-07T10:51:28;44.95;;;28.75;;
23470;SDS011;11908;50.806;4.424;2024-01-07T10:53:59;42.20;;;26.67;;
23470;SDS011;11908;50.806;4.424;2024-01-07T10:56:27;46.17;;;28.27;;
23470;SDS011;11908;50.806;4.424;2024-01-07T10:59:20;42.45;;;27.23;;
23470;SDS011;11908;50.806;4.424;2024-01-07T11:01:48;47.20;;;27.83;;
23470;SDS011;11908;50.806;4.424;2024-01-07T11:04:23;41.90;;;27.27;;
23470;SDS011;11908;50.806;4.424;2024-01-07T11:10:14;46.78;;;27.92;;
23470;SDS011;11908;50.806;4.424;2024-01-07T11:12:53;41.58;;;25.75;;
23470;SDS011;11908;50.806;4.424;2024-01-07T11:18:21;39.45;;;24.27;;
23470;SDS011;11908;50.806;4.424;2024-01-07T11:20:47;38.47;;;22.50;;
23470;SDS011;11908;50.806;4.424;2024-01-07T11:23:26;34.78;;;23.55;;
23470;SDS011;11908;50.806;4.424;2024-01-07T11:25:59;33.65;;;22.98;;
23470;SDS011;11908;50.806;4.424;2024-01-07T11:34:04;30.55;;;21.13;;
23470;SDS011;11908;50.806;4.424;2024-01-07T11:36:30;32.83;;;21.15;;
23470;SDS011;11908;50.806;4.424;2024-01-07T11:38:56;34.13;;;21.73;;
23470;SDS011;11908;50.806;4.424;2024-01-07T11:41:22;31.55;;;20.60;;
23470;SDS011;11908;50.806;4.424;2024-01-07T11:43:51;35.22;;;20.90;;
23470;SDS011;11908;50.806;4.424;2024-01-07T11:46:18;34.65;;;19.88;;
23470;SDS011;11908;50.806;4.424;2024-01-07T11:48:45;33.85;;;19.48;;
23470;SDS011;11908;50.806;4.424;2024-01-07T11:51:11;31.83;;;19.92;;
23470;SDS011;11908;50.806;4.424;2024-01-07T11:53:37;30.83;;;19.65;;
23470;SDS011;11908;50.806;4.424;2024-01-07T11:56:03;34.97;;;20.55;;
23470;SDS011;11908;50.806;4.424;2024-01-07T11:58:29;31.55;;;19.83;;
23470;SDS011;11908;50.806;4.424;2024-01-07T12:00:55;33.28;;;19.25;;
23470;SDS011;11908;50.806;4.424;2024-01-07T12:03:23;31.20;;;19.02;;
23470;SDS011;11908;50.806;4.424;2024-01-07T12:05:49;31.92;;;19.13;;
23470;SDS011;11908;50.806;4.424;2024-01-07T12:08:14;31.00;;;19.70;;
23470;SDS011;11908;50.806;4.424;2024-01-07T12:10:41;31.67;;;18.67;;
23470;SDS011;11908;50.806;4.424;2024-01-07T12:13:07;30.60;;;17.98;;
23470;SDS011;11908;50.806;4.424;2024-01-07T12:15:34;32.15;;;19.55;;
23470;SDS011;11908;50.806;4.424;2024-01-07T12:18:00;33.50;;;20.05;;
23470;SDS011;11908;50.806;4.424;2024-01-07T12:20:27;31.38;;;19.90;;
23470;SDS011;11908;50.806;4.424;2024-01-07T12:23:08;32.60;;;18.92;;
23470;SDS011;11908;50.806;4.424;2024-01-07T12:25:35;31.80;;;18.73;;
23470;SDS011;11908;50.806;4.424;2024-01-07T12:28:02;29.40;;;19.02;;
23470;SDS011;11908;50.806;4.424;2024-01-07T12:30:31;27.83;;;17.05;;
23470;SDS011;11908;50.806;4.424;2024-01-07T12:32:57;34.97;;;18.92;;
23470;SDS011;11908;50.806;4.424;2024-01-07T12:35:25;27.77;;;18.92;;
23470;SDS011;11908;50.806;4.424;2024-01-07T12:37:51;29.88;;;18.33;;
23470;SDS011;11908;50.806;4.424;2024-01-07T12:40:17;32.20;;;19.23;;
23470;SDS011;11908;50.806;4.424;2024-01-07T12:42:44;28.02;;;17.92;;
23470;SDS011;11908;50.806;4.424;2024-01-07T12:45:14;29.77;;;18.88;;
23470;SDS011;11908;50.806;4.424;2024-01-07T12:47:40;30.95;;;19.42;;
23470;SDS011;11908;50.806;4.424;2024-01-07T12:50:07;27.20;;;17.70;;
23470;SDS011;11908;50.806;4.424;2024-01-07T12:52:36;28.95;;;17.90;;
23470;SDS011;11908;50.806;4.424;2024-01-07T12:55:03;32.53;;;18.05;;
23470;SDS011;11908;50.806;4.424;2024-01-07T12:57:29;31.00;;;18.73;;
23470;SDS011;11908;50.806;4.424;2024-01-07T12:59:55;28.73;;;17.48;;
23470;SDS011;11908;50.806;4.424;2024-01-07T13:02:21;26.77;;;16.27;;
23470;SDS011;11908;50.806;4.424;2024-01-07T13:04:47;25.85;;;16.65;;
23470;SDS011;11908;50.806;4.424;2024-01-07T13:07:12;33.22;;;16.83;;
23470;SDS011;11908;50.806;4.424;2024-01-07T13:09:38;25.50;;;16.65;;
23470;SDS011;11908;50.806;4.424;2024-01-07T13:12:04;29.23;;;16.88;;
23470;SDS011;11908;50.806;4.424;2024-01-07T13:14:30;24.30;;;16.60;;
23470;SDS011;11908;50.806;4.424;2024-01-07T13:16:55;23.63;;;15.27;;
23470;SDS011;11908;50.806;4.424;2024-01-07T13:19:21;24.90;;;15.80;;
23470;SDS011;11908;50.806;4.424;2024-01-07T13:21:47;23.08;;;16.33;;
23470;SDS011;11908;50.806;4.424;2024-01-07T13:24:12;25.98;;;16.45;;
23470;SDS011;11908;50.806;4.424;2024-01-07T13:26:38;24.20;;;16.30;;
23470;SDS011;11908;50.806;4.424;2024-01-07T13:29:06;23.63;;;16.17;;
23470;SDS011;11908;50.806;4.424;2024-01-07T13:31:31;27.95;;;16.35;;
23470;SDS011;11908;50.806;4.424;2024-01-07T13:33:58;26.20;;;16.65;;
23470;SDS011;11908;50.806;4.424;2024-01-07T13:36:23;23.85;;;15.90;;
23470;SDS011;11908;50.806;4.424;2024-01-07T13:38:49;23.50;;;16.00;;
23470;SDS011;11908;50.806;4.424;2024-01-07T13:41:15;25.42;;;16.38;;
23470;SDS011;11908;50.806;4.424;2024-01-07T13:43:42;25.75;;;16.35;;
23470;SDS011;11908;50.806;4.424;2024-01-07T13:46:08;27.52;;;17.85;;
23470;SDS011;11908;50.806;4.424;2024-01-07T13:48:34;25.15;;;16.45;;
23470;SDS011;11908;50.806;4.424;2024-01-07T13:50:59;28.73;;;17.25;;
23470;SDS011;11908;50.806;4.424;2024-01-07T13:53:25;23.23;;;16.52;;
23470;SDS011;11908;50.806;4.424;2024-01-07T13:55:51;24.98;;;17.48;;
23470;SDS011;11908;50.806;4.424;2024-01-07T13:58:17;24.27;;;16.73;;
23470;SDS011;11908;50.806;4.424;2024-01-07T14:00:45;24.67;;;17.23;;
23470;SDS011;11908;50.806;4.424;2024-01-07T14:03:10;22.40;;;16.50;;
23470;SDS011;11908;50.806;4.424;2024-01-07T14:05:36;23.92;;;16.23;;
23470;SDS011;11908;50.806;4.424;2024-01-07T14:08:02;22.27;;;15.57;;
23470;SDS011;11908;50.806;4.424;2024-01-07T14:10:28;21.33;;;16.17;;
23470;SDS011;11908;50.806;4.424;2024-01-07T14:12:54;21.70;;;15.77;;
23470;SDS011;11908;50.806;4.424;2024-01-07T14:15:19;23.90;;;16.55;;
23470;SDS011;11908;50.806;4.424;2024-01-07T14:17:45;27.00;;;16.35;;
23470;SDS011;11908;50.806;4.424;2024-01-07T14:20:11;20.88;;;15.35;;
23470;SDS011;11908;50.806;4.424;2024-01-07T14:22:36;20.65;;;15.80;;
23470;SDS011;11908;50.806;4.424;2024-01-07T14:25:03;20.90;;;15.43;;
23470;SDS011;11908;50.806;4.424;2024-01-07T14:27:30;23.75;;;15.55;;